Terminal Aerodrome Forecast
Issued by NWS North Platte, NE

Home | Current Version | Previous Version | Text Only | Print | Product List | Glossary Off
Versions: 1 2 3 4 5 6 7 8 9 10 11 12 13 14 15 16 17 18 19 20 21

000
FTUS43 KLBF 130900 AAB
TAFVTN
TAF AMD
KVTN 130957Z 1310/1406 02018G22KT 3SM -SN BR BKN010 OVC015
      TEMPO 1312/1316 2SM -SN BR OVC008
     FM131600 36025G35KT 4SM -SN BKN015
     FM131900 36024G33KT P6SM BKN025
     FM132200 35020G30KT P6SM SCT025 BKN080
     FM140100 35016KT P6SM BKN120=

USA.gov is the U.S. government's official web portal to all federal, state and local government web resources and services.